createdAt,value
2018-08-04T00:00:11.602Z,23.61
2018-08-04T00:02:41.219Z,23.56
2018-08-04T00:05:11.230Z,23.53
2018-08-04T00:07:40.843Z,23.50
2018-08-04T00:10:19.445Z,23.45
2018-08-04T00:12:50.195Z,23.43
2018-08-04T00:15:20.001Z,23.39
2018-08-04T00:17:50.112Z,23.38
2018-08-04T00:20:19.721Z,23.31
2018-08-04T00:22:49.319Z,23.31
2018-08-04T00:25:18.946Z,23.29
2018-08-04T00:27:48.556Z,23.28
2018-08-04T00:30:18.209Z,23.24
2018-08-04T00:32:47.787Z,23.20
2018-08-04T00:35:17.431Z,23.14
2018-08-04T00:37:47.044Z,23.10
2018-08-04T00:40:16.624Z,23.07
2018-08-04T00:42:46.218Z,23.03
2018-08-04T00:45:15.835Z,23.00
2018-08-04T00:47:45.459Z,22.98
2018-08-04T00:50:15.049Z,22.95
2018-08-04T00:52:44.623Z,22.90
2018-08-04T00:55:14.180Z,22.87
2018-08-04T00:57:43.799Z,22.86
2018-08-04T01:00:13.400Z,22.81
2018-08-04T01:02:43.016Z,22.80
2018-08-04T01:05:12.599Z,22.81
2018-08-04T01:07:42.184Z,22.76
2018-08-04T01:10:11.855Z,22.73
2018-08-04T01:12:41.448Z,22.69
2018-08-04T01:15:11.090Z,22.63
2018-08-04T01:17:40.684Z,22.64
2018-08-04T01:20:10.255Z,22.67
2018-08-04T01:22:39.863Z,22.64
2018-08-04T01:25:09.440Z,22.67
2018-08-04T01:27:39.021Z,22.65
2018-08-04T01:30:08.700Z,22.62
2018-08-04T01:32:38.268Z,22.63
2018-08-04T01:35:07.847Z,22.60
2018-08-04T01:37:37.431Z,22.54
2018-08-04T01:40:07.269Z,22.50
2018-08-04T01:42:36.920Z,22.50
2018-08-04T01:45:06.944Z,22.46
2018-08-04T01:47:36.528Z,22.41
2018-08-04T01:50:06.484Z,22.40
2018-08-04T01:52:36.125Z,22.36
2018-08-04T01:55:05.816Z,22.23
2018-08-04T01:57:35.401Z,22.21
2018-08-04T02:00:05.182Z,22.21
2018-08-04T02:02:34.824Z,22.22
2018-08-04T02:05:04.483Z,22.20
2018-08-04T02:07:34.092Z,22.18
2018-08-04T02:10:03.720Z,22.18
2018-08-04T02:12:33.324Z,22.13
2018-08-04T02:15:02.941Z,22.07
2018-08-04T02:17:32.528Z,22.04
2018-08-04T02:20:02.131Z,22.01
2018-08-04T02:22:31.703Z,21.99
2018-08-04T02:25:01.289Z,21.94
2018-08-04T02:27:30.881Z,21.91
2018-08-04T02:30:00.505Z,21.88
2018-08-04T02:32:30.083Z,21.86
2018-08-04T02:34:59.660Z,21.85
2018-08-04T02:37:29.276Z,21.82
2018-08-04T02:39:58.874Z,21.82
2018-08-04T02:42:28.476Z,21.79
2018-08-04T02:44:58.076Z,21.77
2018-08-04T02:47:27.659Z,21.75
2018-08-04T02:49:57.252Z,21.69
2018-08-04T02:52:26.840Z,21.69
2018-08-04T02:54:56.408Z,21.66
2018-08-04T02:57:25.977Z,21.59
2018-08-04T02:59:55.563Z,21.57
2018-08-04T03:02:25.158Z,21.52
2018-08-04T03:04:54.724Z,21.53
2018-08-04T03:07:24.360Z,21.54
2018-08-04T03:09:53.921Z,21.53
2018-08-04T03:12:23.488Z,21.50
2018-08-04T03:14:53.328Z,21.50
2018-08-04T03:17:22.975Z,21.46
2018-08-04T03:19:52.577Z,21.45
2018-08-04T03:22:22.162Z,21.44
2018-08-04T03:24:51.762Z,21.43
2018-08-04T03:27:21.404Z,21.37
2018-08-04T03:29:51.007Z,21.35
2018-08-04T03:32:20.596Z,21.35
2018-08-04T03:34:50.556Z,21.34
2018-08-04T03:37:20.180Z,21.32
2018-08-04T03:39:49.935Z,21.29
2018-08-04T03:42:19.532Z,21.28
2018-08-04T03:44:49.124Z,21.29
2018-08-04T03:47:18.732Z,21.27
2018-08-04T03:49:48.338Z,21.27
2018-08-04T03:52:17.904Z,21.24
2018-08-04T03:54:47.506Z,21.22
2018-08-04T03:57:17.077Z,21.23
2018-08-04T03:59:46.687Z,21.24
2018-08-04T04:02:16.277Z,21.24
2018-08-04T04:04:45.889Z,21.23
2018-08-04T04:07:15.497Z,21.25
2018-08-04T04:09:45.081Z,21.21
2018-08-04T04:12:14.683Z,21.21
2018-08-04T04:14:44.328Z,21.25
2018-08-04T04:17:13.911Z,21.26
2018-08-04T04:19:43.487Z,21.25
2018-08-04T04:22:13.115Z,21.32
2018-08-04T04:24:42.686Z,21.34
2018-08-04T04:27:12.296Z,21.40
2018-08-04T04:29:41.868Z,21.39
2018-08-04T04:32:11.522Z,21.38
2018-08-04T04:34:41.100Z,21.37
2018-08-04T04:37:10.984Z,21.37
2018-08-04T04:39:40.596Z,21.38
2018-08-04T04:42:10.200Z,21.39
2018-08-04T04:44:39.799Z,21.40
2018-08-04T04:47:09.384Z,21.47
2018-08-04T04:49:38.988Z,21.54
2018-08-04T04:52:08.624Z,21.55
2018-08-04T04:54:38.228Z,21.59
2018-08-04T04:57:07.811Z,21.67
2018-08-04T04:59:37.390Z,21.74
2018-08-04T05:02:07.088Z,21.83
2018-08-04T05:04:36.660Z,21.92
2018-08-04T05:07:06.317Z,21.98
2018-08-04T05:09:35.943Z,22.07
2018-08-04T05:12:05.622Z,22.13
2018-08-04T05:14:35.245Z,22.22
2018-08-04T05:17:04.876Z,22.28
2018-08-04T05:19:34.475Z,22.38
2018-08-04T05:22:04.136Z,22.46
2018-08-04T05:24:33.727Z,22.54
2018-08-04T05:27:03.316Z,22.62
2018-08-04T05:29:32.919Z,22.71
2018-08-04T05:32:02.546Z,22.81
2018-08-04T05:34:32.109Z,22.92
2018-08-04T05:37:01.711Z,23.03
2018-08-04T05:39:31.408Z,23.11
2018-08-04T05:42:01.004Z,23.16
2018-08-04T05:44:30.659Z,23.25
2018-08-04T05:47:00.220Z,23.35
2018-08-04T05:49:29.792Z,23.42
2018-08-04T05:51:59.400Z,23.54
2018-08-04T05:54:28.994Z,23.59
2018-08-04T05:56:58.596Z,23.65
2018-08-04T05:59:28.215Z,23.67
2018-08-04T06:01:57.811Z,23.76
2018-08-04T06:04:27.463Z,23.91
2018-08-04T06:06:57.033Z,24.03
2018-08-04T06:09:26.608Z,24.13
2018-08-04T06:11:56.196Z,24.31
2018-08-04T06:14:25.800Z,24.47
2018-08-04T06:16:55.413Z,24.58
2018-08-04T06:19:25.304Z,24.85
2018-08-04T06:21:54.897Z,24.96
2018-08-04T06:24:24.512Z,25.12
2018-08-04T06:26:54.076Z,25.19
2018-08-04T06:29:23.663Z,25.33
2018-08-04T06:31:53.251Z,25.44
2018-08-04T06:34:22.841Z,25.53
2018-08-04T06:36:52.436Z,25.63
2018-08-04T06:39:22.072Z,25.62
2018-08-04T06:41:51.664Z,25.54
2018-08-04T06:44:21.333Z,25.65
2018-08-04T06:46:50.928Z,25.61
2018-08-04T06:49:20.516Z,25.62
2018-08-04T06:51:50.104Z,25.55
2018-08-04T06:54:19.715Z,25.49
2018-08-04T06:56:49.305Z,25.48
2018-08-04T06:59:18.898Z,25.43
2018-08-04T07:01:48.486Z,25.57
2018-08-04T07:04:18.055Z,25.64
2018-08-04T07:06:47.674Z,25.71
2018-08-04T07:09:17.264Z,25.76
2018-08-04T07:11:46.837Z,25.98
2018-08-04T07:14:16.412Z,26.31
2018-08-04T07:16:46.028Z,26.56
2018-08-04T07:19:15.625Z,26.80
2018-08-04T07:21:45.217Z,26.99
2018-08-04T07:24:14.811Z,27.16
2018-08-04T07:26:44.441Z,27.22
2018-08-04T07:29:14.055Z,27.33
2018-08-04T07:31:43.644Z,27.58
2018-08-04T07:34:13.281Z,27.70
2018-08-04T07:36:42.855Z,27.84
2018-08-04T07:39:12.503Z,27.90
2018-08-04T07:41:42.100Z,27.85
2018-08-04T07:44:11.660Z,28.00
2018-08-04T07:46:41.269Z,28.03
2018-08-04T07:49:10.928Z,28.01
2018-08-04T07:51:40.503Z,28.00
2018-08-04T07:54:10.076Z,28.16
2018-08-04T07:56:42.528Z,28.11
2018-08-04T07:59:12.105Z,28.00
2018-08-04T08:01:41.717Z,28.15
2018-08-04T08:04:11.290Z,28.32
2018-08-04T08:06:40.877Z,28.38
2018-08-04T08:09:10.476Z,28.44
2018-08-04T08:11:40.072Z,28.44
2018-08-04T08:14:09.709Z,28.47
2018-08-04T08:16:39.724Z,28.76
2018-08-04T08:19:09.740Z,28.90
2018-08-04T08:21:39.361Z,28.95
2018-08-04T08:24:08.948Z,29.12
2018-08-04T08:26:38.535Z,29.41
2018-08-04T08:29:08.161Z,29.36
2018-08-04T08:31:37.812Z,29.43
2018-08-04T08:34:07.460Z,29.55
2018-08-04T08:36:37.048Z,29.79
2018-08-04T08:39:08.305Z,29.97
2018-08-04T08:41:37.904Z,30.23
2018-08-04T08:44:07.478Z,30.41
2018-08-04T08:46:37.093Z,30.43
2018-08-04T08:49:06.753Z,30.60
2018-08-04T08:51:36.336Z,30.85
2018-08-04T08:54:05.986Z,30.98
2018-08-04T08:56:35.524Z,31.25
2018-08-04T08:59:05.123Z,31.51
2018-08-04T09:01:34.696Z,31.87
2018-08-04T09:04:04.348Z,32.16
2018-08-04T09:06:33.956Z,32.32
2018-08-04T09:09:04.729Z,32.41
2018-08-04T09:11:34.319Z,32.50
2018-08-04T09:14:03.983Z,32.53
2018-08-04T09:16:33.584Z,32.50
2018-08-04T09:19:03.210Z,32.49
2018-08-04T09:21:32.831Z,32.59
2018-08-04T09:24:02.448Z,32.69
2018-08-04T09:26:32.085Z,32.69
2018-08-04T09:29:01.679Z,32.62
2018-08-04T09:31:31.287Z,32.75
2018-08-04T09:34:01.283Z,32.91
2018-08-04T09:36:30.895Z,33.13
2018-08-04T09:39:00.485Z,33.18
2018-08-04T09:41:30.197Z,33.39
2018-08-04T09:43:59.760Z,33.58
2018-08-04T09:46:29.364Z,33.63
2018-08-04T09:48:58.944Z,33.53
2018-08-04T09:51:28.616Z,33.49
2018-08-04T09:53:58.443Z,33.51
2018-08-04T09:56:28.043Z,33.80
2018-08-04T09:58:57.634Z,34.11
2018-08-04T10:01:32.499Z,34.29
2018-08-04T10:04:02.115Z,34.49
2018-08-04T10:06:31.664Z,34.71
2018-08-04T10:09:01.264Z,34.93
2018-08-04T10:11:30.908Z,34.97
2018-08-04T10:14:00.477Z,35.12
2018-08-04T10:16:30.074Z,35.18
2018-08-04T10:18:59.673Z,35.30
2018-08-04T10:21:29.243Z,35.53
2018-08-04T10:23:58.821Z,35.71
2018-08-04T10:26:28.439Z,35.95
2018-08-04T10:28:58.030Z,36.10
2018-08-04T10:31:27.600Z,36.04
2018-08-04T10:33:57.196Z,36.23
2018-08-04T10:36:26.779Z,36.06
2018-08-04T10:38:56.360Z,36.13
2018-08-04T10:41:25.946Z,36.18
2018-08-04T10:43:55.560Z,36.12
2018-08-04T10:46:25.101Z,35.93
2018-08-04T10:48:54.670Z,36.20
2018-08-04T10:51:24.240Z,36.34
2018-08-04T10:53:53.848Z,36.32
2018-08-04T10:56:23.435Z,36.58
2018-08-04T10:58:53.016Z,36.77
2018-08-04T11:01:22.568Z,36.99
2018-08-04T11:03:52.453Z,37.19
2018-08-04T11:06:22.072Z,37.35
2018-08-04T11:08:51.707Z,37.36
2018-08-04T11:11:21.327Z,37.69
2018-08-04T11:13:50.923Z,37.89
2018-08-04T11:16:20.508Z,38.07
2018-08-04T11:18:50.119Z,38.15
2018-08-04T11:21:19.701Z,38.37
2018-08-04T11:24:03.908Z,38.53
2018-08-04T11:26:34.380Z,38.50
2018-08-04T11:29:03.956Z,38.31
2018-08-04T11:31:33.638Z,37.90
2018-08-04T11:34:03.248Z,37.52
2018-08-04T11:36:32.850Z,37.01
2018-08-04T11:39:02.518Z,36.91
2018-08-04T11:41:32.104Z,36.85
2018-08-04T11:44:01.672Z,36.46
2018-08-04T11:46:31.245Z,36.39
2018-08-04T11:49:00.813Z,36.23
2018-08-04T11:51:30.475Z,36.21
2018-08-04T11:54:00.032Z,36.41
2018-08-04T11:56:29.605Z,36.51
2018-08-04T11:58:59.207Z,36.68
2018-08-04T12:01:28.804Z,37.15
2018-08-04T12:03:58.374Z,37.27
2018-08-04T12:06:28.060Z,37.36
2018-08-04T12:08:57.608Z,37.36
2018-08-04T12:11:27.192Z,38.07
2018-08-04T12:13:56.769Z,38.86
2018-08-04T12:16:26.354Z,40.28
2018-08-04T12:18:55.908Z,41.25
2018-08-04T12:21:25.479Z,41.96
2018-08-04T12:23:55.079Z,43.08
2018-08-04T12:26:24.646Z,44.07
2018-08-04T12:28:54.207Z,45.27
2018-08-04T12:31:23.806Z,45.88
2018-08-04T12:33:53.491Z,48.38
2018-08-04T12:36:23.051Z,50.55
2018-08-04T12:38:52.617Z,53.26
2018-08-04T12:41:22.179Z,55.37
2018-08-04T12:43:51.749Z,57.12
2018-08-04T12:46:21.340Z,57.82
2018-08-04T12:48:50.931Z,58.85
2018-08-04T12:51:20.505Z,56.36
2018-08-04T12:53:50.084Z,53.46
2018-08-04T12:56:19.660Z,50.36
2018-08-04T12:58:49.225Z,48.45
2018-08-04T13:01:18.820Z,50.20
2018-08-04T13:03:48.400Z,53.34
2018-08-04T13:06:17.984Z,55.48
2018-08-04T13:08:47.620Z,56.08
2018-08-04T13:11:17.175Z,57.58
2018-08-04T13:13:46.756Z,59.41
2018-08-04T13:16:16.341Z,60.57
2018-08-04T13:18:45.927Z,61.18
2018-08-04T13:21:15.509Z,62.23
2018-08-04T13:23:45.112Z,63.56
2018-08-04T13:26:14.707Z,64.34
2018-08-04T13:28:44.295Z,64.16
2018-08-04T13:31:13.865Z,63.97
2018-08-04T13:33:43.403Z,63.45
2018-08-04T13:36:12.982Z,64.08
2018-08-04T13:38:42.616Z,64.95
2018-08-04T13:41:12.358Z,64.57
2018-08-04T13:43:41.945Z,65.37
2018-08-04T13:46:11.531Z,65.66
2018-08-04T13:48:41.084Z,65.36
2018-08-04T13:51:17.163Z,64.91
2018-08-04T13:53:46.724Z,65.33
2018-08-04T13:56:16.287Z,63.62
2018-08-04T13:58:45.911Z,63.08
2018-08-04T14:01:15.453Z,63.92
2018-08-04T14:03:45.379Z,64.88
2018-08-04T14:06:31.246Z,63.39
2018-08-04T14:09:01.481Z,62.88
2018-08-04T14:11:31.596Z,61.80
2018-08-04T14:14:01.303Z,61.49
2018-08-04T14:16:30.904Z,58.90
2018-08-04T14:19:00.549Z,59.33
2018-08-04T14:21:30.905Z,60.94
2018-08-04T14:24:00.532Z,61.71
2018-08-04T14:26:30.169Z,58.32
2018-08-04T14:28:59.853Z,54.78
2018-08-04T14:31:29.679Z,50.76
2018-08-04T14:33:59.325Z,49.03
2018-08-04T14:36:30.056Z,47.97
2018-08-04T14:39:02.366Z,47.01
2018-08-04T14:41:33.863Z,45.55
2018-08-04T14:44:03.767Z,44.17
2018-08-04T14:46:34.281Z,43.76
2018-08-04T14:49:03.950Z,43.03
2018-08-04T14:51:34.930Z,42.78
2018-08-04T14:54:04.988Z,41.75
2018-08-04T14:56:36.177Z,41.99
2018-08-04T14:59:07.909Z,41.89
2018-08-04T15:01:38.625Z,41.69
2018-08-04T15:04:10.573Z,41.60
2018-08-04T15:06:41.830Z,40.98
2018-08-04T15:09:12.820Z,40.70
2018-08-04T15:11:43.628Z,40.05
2018-08-04T15:14:14.903Z,40.01
2018-08-04T15:16:47.202Z,40.07
2018-08-04T15:19:16.956Z,40.20
2018-08-04T15:21:48.038Z,40.04
2018-08-04T15:24:17.834Z,40.13
2018-08-04T15:26:48.860Z,40.10
2018-08-04T15:29:23.333Z,39.81
2018-08-04T15:31:54.593Z,39.76
2018-08-04T15:34:24.385Z,39.93
2018-08-04T15:36:55.311Z,39.83
2018-08-04T15:39:24.949Z,39.83
2018-08-04T15:41:55.105Z,39.70
2018-08-04T15:44:24.778Z,39.75
2018-08-04T15:46:54.452Z,39.61
2018-08-04T15:49:24.192Z,39.55
2018-08-04T15:51:53.920Z,39.50
2018-08-04T15:54:23.621Z,39.46
2018-08-04T15:56:53.244Z,39.25
2018-08-04T15:59:22.856Z,39.02
2018-08-04T16:01:52.468Z,39.04
2018-08-04T16:04:22.154Z,39.03
2018-08-04T16:06:51.769Z,39.01
2018-08-04T16:09:21.383Z,38.83
2018-08-04T16:11:51.017Z,38.73
2018-08-04T16:14:20.677Z,38.56
2018-08-04T16:16:50.342Z,38.23
2018-08-04T16:19:19.948Z,37.79
2018-08-04T16:21:50.152Z,37.53
2018-08-04T16:24:19.864Z,37.45
2018-08-04T16:26:49.664Z,37.29
2018-08-04T16:29:19.715Z,37.21
2018-08-04T16:31:49.396Z,37.06
2018-08-04T16:34:19.038Z,36.83
2018-08-04T16:36:48.689Z,36.64
2018-08-04T16:39:18.357Z,36.54
2018-08-04T16:41:48.035Z,36.51
2018-08-04T16:44:17.665Z,36.45
2018-08-04T16:46:47.394Z,36.36
2018-08-04T16:49:17.049Z,36.05
2018-08-04T16:51:47.190Z,35.91
2018-08-04T16:54:17.008Z,35.70
2018-08-04T16:56:46.664Z,35.46
2018-08-04T16:59:16.317Z,35.32
2018-08-04T17:01:46.175Z,35.15
2018-08-04T17:04:15.839Z,34.99
2018-08-04T17:06:46.038Z,34.62
2018-08-04T17:09:15.804Z,34.52
2018-08-04T17:11:45.892Z,34.40
2018-08-04T17:14:15.549Z,34.31
2018-08-04T17:16:45.213Z,34.21
2018-08-04T17:19:14.961Z,34.13
2018-08-04T17:21:44.564Z,34.03
2018-08-04T17:24:14.339Z,33.97
2018-08-04T17:26:44.241Z,33.83
2018-08-04T17:29:13.935Z,33.67
2018-08-04T17:31:43.624Z,33.60
2018-08-04T17:34:13.247Z,33.46
2018-08-04T17:36:42.880Z,33.23
2018-08-04T17:39:12.533Z,33.23
2018-08-04T17:41:42.191Z,33.15
2018-08-04T17:44:11.836Z,33.01
2018-08-04T17:46:41.508Z,32.96
2018-08-04T17:49:11.172Z,32.84
2018-08-04T17:51:40.878Z,32.73
2018-08-04T17:54:10.551Z,32.63
2018-08-04T17:56:40.190Z,32.55
2018-08-04T17:59:09.829Z,32.44
2018-08-04T18:01:39.551Z,32.30
2018-08-04T18:04:09.202Z,32.17
2018-08-04T18:06:38.913Z,31.99
2018-08-04T18:09:09.718Z,31.91
2018-08-04T18:11:40.267Z,31.77
2018-08-04T18:14:09.993Z,31.65
2018-08-04T18:16:39.639Z,31.52
2018-08-04T18:19:09.465Z,31.40
2018-08-04T18:21:39.113Z,31.27
2018-08-04T18:24:08.838Z,31.15
2018-08-04T18:26:38.583Z,30.99
2018-08-04T18:29:08.349Z,30.84
2018-08-04T18:31:38.900Z,30.69
2018-08-04T18:34:08.652Z,30.56
2018-08-04T18:36:38.330Z,30.41
2018-08-04T18:39:09.321Z,30.28
2018-08-04T18:41:39.964Z,30.15
2018-08-04T18:44:09.682Z,30.03
2018-08-04T18:46:39.421Z,29.90
2018-08-04T18:49:09.177Z,29.77
2018-08-04T18:51:38.965Z,29.64
2018-08-04T18:54:08.665Z,29.51
2018-08-04T18:56:38.347Z,29.38
2018-08-04T18:59:08.132Z,29.26
2018-08-04T19:01:37.752Z,29.14
2018-08-04T19:04:07.420Z,29.01
2018-08-04T19:06:37.114Z,28.93
2018-08-04T19:09:09.045Z,28.82
2018-08-04T19:11:38.707Z,28.73
2018-08-04T19:14:08.967Z,28.63
2018-08-04T19:16:38.647Z,28.51
2018-08-04T19:19:08.282Z,28.39
2018-08-04T19:21:37.958Z,28.27
2018-08-04T19:24:07.665Z,28.15
2018-08-04T19:26:37.340Z,28.04
2018-08-04T19:29:07.070Z,27.94
2018-08-04T19:31:37.264Z,27.86
2018-08-04T19:34:06.934Z,27.80
2018-08-04T19:36:36.602Z,27.70
2018-08-04T19:39:08.646Z,27.63
2018-08-04T19:41:38.377Z,27.58
2018-08-04T19:44:08.167Z,27.50
2018-08-04T19:46:37.860Z,27.43
2018-08-04T19:49:07.495Z,27.35
2018-08-04T19:51:37.263Z,27.30
2018-08-04T19:54:07.159Z,27.22
2018-08-04T19:56:36.840Z,27.13
2018-08-04T19:59:06.785Z,27.06
2018-08-04T20:01:36.773Z,27.00
2018-08-04T20:04:06.668Z,26.96
2018-08-04T20:06:36.374Z,26.90
2018-08-04T20:09:12.971Z,26.83
2018-08-04T20:11:42.620Z,26.75
2018-08-04T20:14:12.343Z,26.69
2018-08-04T20:16:42.530Z,26.61
2018-08-04T20:19:12.220Z,26.53
2018-08-04T20:21:41.872Z,26.45
2018-08-04T20:24:11.499Z,26.44
2018-08-04T20:26:41.172Z,26.40
2018-08-04T20:29:10.914Z,26.36
2018-08-04T20:31:40.550Z,26.31
2018-08-04T20:34:10.889Z,26.24
2018-08-04T20:36:40.575Z,26.19
2018-08-04T20:39:11.011Z,26.13
2018-08-04T20:41:40.668Z,26.05
2018-08-04T20:44:10.357Z,25.99
2018-08-04T20:46:41.336Z,25.95
2018-08-04T20:49:10.965Z,25.89
2018-08-04T20:51:40.677Z,25.83
2018-08-04T20:54:10.372Z,25.80
2018-08-04T20:56:40.055Z,25.70
2018-08-04T20:59:09.706Z,25.67
2018-08-04T21:02:10.431Z,25.62
2018-08-04T21:04:40.116Z,25.56
2018-08-04T21:07:09.833Z,25.52
2018-08-04T21:09:39.484Z,25.51
2018-08-04T21:12:09.178Z,25.45
2018-08-04T21:14:39.252Z,25.41
2018-08-04T21:17:08.969Z,25.36
2018-08-04T21:19:38.719Z,25.33
2018-08-04T21:22:08.894Z,25.33
2018-08-04T21:24:38.546Z,25.27
2018-08-04T21:27:08.217Z,25.19
2018-08-04T21:29:37.843Z,25.16
2018-08-04T21:32:07.565Z,25.10
2018-08-04T21:34:37.215Z,25.08
2018-08-04T21:37:06.877Z,25.02
2018-08-04T21:39:36.508Z,25.00
2018-08-04T21:42:06.202Z,24.96
2018-08-04T21:44:35.851Z,24.91
2018-08-04T21:47:05.509Z,24.87
2018-08-04T21:49:35.346Z,24.84
2018-08-04T21:52:04.994Z,24.81
2018-08-04T21:54:34.669Z,24.77
2018-08-04T21:57:04.370Z,24.74
2018-08-04T21:59:34.020Z,24.70
2018-08-04T22:02:03.866Z,24.65
2018-08-04T22:04:33.406Z,24.59
2018-08-04T22:07:43.516Z,24.54
2018-08-04T22:10:13.613Z,24.48
2018-08-04T22:12:43.752Z,24.48
2018-08-04T22:15:14.793Z,24.43
2018-08-04T22:17:51.219Z,24.40
2018-08-04T22:20:21.787Z,24.38
2018-08-04T22:22:51.496Z,24.33
2018-08-04T22:25:23.738Z,24.32
2018-08-04T22:27:53.698Z,24.32
2018-08-04T22:30:23.707Z,24.29
2018-08-04T22:32:53.492Z,24.24
2018-08-04T22:35:23.453Z,24.23
2018-08-04T22:37:53.108Z,24.15
2018-08-04T22:40:22.942Z,24.12
2018-08-04T22:42:52.604Z,24.10
2018-08-04T22:45:34.284Z,24.04
2018-08-04T22:48:03.944Z,23.99
2018-08-04T22:50:33.656Z,23.97
2018-08-04T22:53:03.344Z,23.97
2018-08-04T22:55:33.004Z,23.94
2018-08-04T22:58:02.654Z,23.95
2018-08-04T23:00:32.624Z,23.92
2018-08-04T23:03:02.303Z,23.87
2018-08-04T23:05:31.973Z,23.82
2018-08-04T23:08:01.880Z,23.78
2018-08-04T23:10:31.792Z,23.76
2018-08-04T23:13:01.442Z,23.69
2018-08-04T23:15:31.107Z,23.66
2018-08-04T23:18:00.751Z,23.66
2018-08-04T23:20:30.425Z,23.62
2018-08-04T23:23:00.530Z,23.58
2018-08-04T23:25:30.208Z,23.54
2018-08-04T23:27:59.846Z,23.53
2018-08-04T23:30:29.490Z,23.53
2018-08-04T23:32:59.190Z,23.52
2018-08-04T23:35:29.072Z,23.48
2018-08-04T23:37:58.714Z,23.43
2018-08-04T23:40:28.385Z,23.37
2018-08-04T23:42:58.087Z,23.31
2018-08-04T23:45:27.760Z,23.26
2018-08-04T23:47:57.425Z,23.19
2018-08-04T23:50:27.079Z,23.17
2018-08-04T23:52:56.722Z,23.15
2018-08-04T23:55:26.365Z,23.10
2018-08-04T23:57:55.993Z,23.07
